createdAt,value
2022-12-07T00:01:24.387Z,25.17
2022-12-07T00:03:53.641Z,25.83
2022-12-07T00:06:21.251Z,24.15
2022-12-07T00:11:20.859Z,24.77
2022-12-07T00:13:51.686Z,26.58
2022-12-07T00:16:21.500Z,27.38
2022-12-07T00:18:48.697Z,33.08
2022-12-07T00:21:21.430Z,26.67
2022-12-07T00:23:49.886Z,29.63
2022-12-07T00:26:20.876Z,30.48
2022-12-07T00:28:57.030Z,30.38
2022-12-07T00:31:26.544Z,30.85
2022-12-07T00:33:53.751Z,24.05
2022-12-07T00:36:26.948Z,25.23
2022-12-07T00:38:55.791Z,29.42
2022-12-07T00:41:24.754Z,26.40
2022-12-07T00:43:52.209Z,29.13
2022-12-07T00:46:20.169Z,25.65
2022-12-07T00:48:48.111Z,23.83
2022-12-07T00:51:16.648Z,25.00
2022-12-07T00:53:43.568Z,21.75
2022-12-07T00:56:14.063Z,21.67
2022-12-07T00:58:41.303Z,22.98
2022-12-07T01:01:09.836Z,26.10
2022-12-07T01:03:37.624Z,25.60
2022-12-07T01:06:05.316Z,20.45
2022-12-07T01:08:32.530Z,26.10
2022-12-07T01:11:08.229Z,26.77
2022-12-07T01:13:35.861Z,30.70
2022-12-07T01:16:05.078Z,21.23
2022-12-07T01:18:33.788Z,19.50
2022-12-07T01:21:03.123Z,25.77
2022-12-07T01:23:30.680Z,26.95
2022-12-07T01:28:26.116Z,20.63
2022-12-07T01:33:45.396Z,22.55
2022-12-07T01:36:38.207Z,22.02
2022-12-07T01:39:07.558Z,22.02
2022-12-07T01:41:37.339Z,23.35
2022-12-07T01:44:18.877Z,18.50
2022-12-07T01:46:57.229Z,27.55
2022-12-07T01:49:30.367Z,23.48
2022-12-07T01:52:24.756Z,21.73
2022-12-07T01:54:56.341Z,26.83
2022-12-07T01:57:23.708Z,19.45
2022-12-07T01:59:52.979Z,24.77
2022-12-07T02:02:26.222Z,26.38
2022-12-07T02:04:54.467Z,23.63
2022-12-07T02:07:23.544Z,20.50
2022-12-07T02:09:50.308Z,26.52
2022-12-07T02:12:17.303Z,20.67
2022-12-07T02:14:44.084Z,22.88
2022-12-07T02:17:10.892Z,27.38
2022-12-07T02:19:58.651Z,23.73
2022-12-07T02:22:59.922Z,25.48
2022-12-07T02:25:45.634Z,25.92
2022-12-07T02:28:21.293Z,23.10
2022-12-07T02:30:51.068Z,23.75
2022-12-07T02:33:25.732Z,23.73
2022-12-07T02:35:57.865Z,26.77
2022-12-07T02:38:35.969Z,23.38
2022-12-07T02:41:13.803Z,21.98
2022-12-07T02:43:48.474Z,20.42
2022-12-07T02:46:24.828Z,20.35
2022-12-07T02:48:52.633Z,15.43
2022-12-07T02:51:19.974Z,25.90
2022-12-07T02:53:46.927Z,20.73
2022-12-07T02:56:32.603Z,20.90
2022-12-07T02:58:59.305Z,20.50
2022-12-07T03:01:35.094Z,20.17
2022-12-07T03:04:13.287Z,25.15
2022-12-07T03:06:49.395Z,25.95
2022-12-07T03:09:28.129Z,21.23
2022-12-07T03:12:15.330Z,20.17
2022-12-07T03:17:28.113Z,19.92
2022-12-07T03:19:59.335Z,20.83
2022-12-07T03:22:32.291Z,19.55
2022-12-07T03:25:01.622Z,20.27
2022-12-07T03:27:39.209Z,19.38
2022-12-07T03:30:10.612Z,17.65
2022-12-07T03:33:15.540Z,18.33
2022-12-07T03:35:48.615Z,22.45
2022-12-07T03:38:24.191Z,17.40
2022-12-07T03:41:00.762Z,19.27
2022-12-07T03:43:30.286Z,17.42
2022-12-07T03:46:16.073Z,25.75
2022-12-07T03:49:24.207Z,16.08
2022-12-07T03:52:18.745Z,20.30
2022-12-07T03:54:52.234Z,18.30
2022-12-07T03:57:19.880Z,16.90
2022-12-07T03:59:47.398Z,20.05
2022-12-07T04:07:09.248Z,17.77
2022-12-07T04:09:36.016Z,12.50
2022-12-07T04:12:02.836Z,15.85
2022-12-07T04:14:29.592Z,17.00
2022-12-07T04:16:57.791Z,12.75
2022-12-07T04:19:34.973Z,13.88
2022-12-07T04:22:03.563Z,16.38
2022-12-07T04:24:30.516Z,14.88
2022-12-07T04:26:57.267Z,13.27
2022-12-07T04:29:24.038Z,25.98
2022-12-07T04:31:51.394Z,10.85
2022-12-07T04:34:19.778Z,17.55
2022-12-07T04:36:47.852Z,14.50
2022-12-07T04:39:25.366Z,14.85
2022-12-07T04:41:52.230Z,15.10
2022-12-07T04:44:19.933Z,14.82
2022-12-07T04:46:47.351Z,14.13
2022-12-07T04:51:42.482Z,12.93
2022-12-07T04:54:09.579Z,14.13
2022-12-07T04:56:36.721Z,12.95
2022-12-07T04:59:04.347Z,15.02
2022-12-07T05:03:58.095Z,13.10
2022-12-07T05:06:25.314Z,10.63
2022-12-07T05:08:52.176Z,15.07
2022-12-07T05:11:37.760Z,13.82
2022-12-07T05:14:07.113Z,18.73
2022-12-07T05:16:33.941Z,13.80
2022-12-07T05:19:00.824Z,9.77
2022-12-07T05:21:27.591Z,13.75
2022-12-07T05:23:54.334Z,9.82
2022-12-07T05:26:21.114Z,13.65
2022-12-07T05:28:52.646Z,12.82
2022-12-07T05:31:19.880Z,18.98
2022-12-07T05:33:46.920Z,12.40
2022-12-07T05:36:13.816Z,9.88
2022-12-07T05:38:40.677Z,10.45
2022-12-07T05:41:28.924Z,12.65
2022-12-07T05:43:56.838Z,12.40
2022-12-07T05:46:23.747Z,16.38
2022-12-07T05:48:50.607Z,19.63
2022-12-07T05:51:17.478Z,17.45
2022-12-07T05:53:44.279Z,11.23
2022-12-07T05:56:11.025Z,14.20
2022-12-07T05:58:56.519Z,12.75
2022-12-07T06:01:23.299Z,12.93
2022-12-07T06:03:50.038Z,13.38
2022-12-07T06:06:16.844Z,16.05
2022-12-07T06:08:43.604Z,13.63
2022-12-07T06:11:28.819Z,14.32
2022-12-07T06:13:55.652Z,12.30
2022-12-07T06:16:22.524Z,14.93
2022-12-07T06:18:49.416Z,13.55
2022-12-07T06:21:16.200Z,13.38
2022-12-07T06:23:42.962Z,18.42
2022-12-07T06:26:09.761Z,18.65
2022-12-07T06:28:36.548Z,10.55
2022-12-07T06:31:04.244Z,13.75
2022-12-07T06:33:32.435Z,13.90
2022-12-07T06:35:59.219Z,17.13
2022-12-07T06:38:26.106Z,18.70
2022-12-07T06:40:52.901Z,15.20
2022-12-07T06:43:19.716Z,11.57
2022-12-07T06:45:46.672Z,19.17
2022-12-07T06:48:13.603Z,11.48
2022-12-07T06:50:40.559Z,10.73
2022-12-07T06:53:07.311Z,11.00
2022-12-07T06:55:34.105Z,20.25
2022-12-07T06:58:02.552Z,10.05
2022-12-07T07:00:29.910Z,15.32
2022-12-07T07:02:56.765Z,15.30
2022-12-07T07:05:23.699Z,12.77
2022-12-07T07:08:21.005Z,13.68
2022-12-07T07:10:38.473Z,19.15
2022-12-07T07:13:05.768Z,14.23
2022-12-07T07:15:33.655Z,14.05
2022-12-07T07:18:07.430Z,13.98
2022-12-07T07:20:34.761Z,14.10
2022-12-07T07:23:01.765Z,11.23
2022-12-07T07:25:28.614Z,15.95
2022-12-07T07:27:55.774Z,17.45
2022-12-07T07:30:22.664Z,14.73
2022-12-07T07:32:49.618Z,12.93
2022-12-07T07:35:16.608Z,15.73
2022-12-07T07:37:43.436Z,13.20
2022-12-07T07:40:10.918Z,17.08
2022-12-07T07:45:05.493Z,9.30
2022-12-07T07:47:32.555Z,17.45
2022-12-07T07:49:59.435Z,15.68
2022-12-07T07:52:26.430Z,10.35
2022-12-07T07:54:53.199Z,15.23
2022-12-07T07:57:19.925Z,11.98
2022-12-07T07:59:46.724Z,11.65
2022-12-07T08:02:16.257Z,12.07
2022-12-07T08:04:43.238Z,12.00
2022-12-07T08:07:10.512Z,11.35
2022-12-07T08:09:37.300Z,12.00
2022-12-07T08:12:04.806Z,8.95
2022-12-07T08:14:32.136Z,18.02
2022-12-07T08:16:58.957Z,9.80
2022-12-07T08:19:25.792Z,10.60
2022-12-07T08:21:52.937Z,15.02
2022-12-07T08:24:19.702Z,10.73
2022-12-07T08:26:46.451Z,8.35
2022-12-07T08:29:13.166Z,13.00
2022-12-07T08:31:40.738Z,9.13
2022-12-07T08:34:07.706Z,9.98
2022-12-07T08:36:34.524Z,9.63
2022-12-07T08:39:30.527Z,10.10
2022-12-07T08:41:48.784Z,11.70
2022-12-07T08:46:59.162Z,9.00
2022-12-07T08:49:32.672Z,9.02
2022-12-07T08:51:59.524Z,9.70
2022-12-07T08:54:26.843Z,7.70
2022-12-07T08:56:59.514Z,10.23
2022-12-07T08:59:28.634Z,9.50
2022-12-07T09:01:55.675Z,8.32
2022-12-07T09:04:22.526Z,7.82
2022-12-07T09:06:49.695Z,12.40
2022-12-07T09:09:16.700Z,17.33
2022-12-07T09:11:43.611Z,8.70
2022-12-07T09:14:10.424Z,13.40
2022-12-07T09:16:37.283Z,7.97
2022-12-07T09:19:04.096Z,6.75
2022-12-07T09:21:31.034Z,6.07
2022-12-07T09:23:57.773Z,9.32
2022-12-07T09:26:24.604Z,8.23
2022-12-07T09:28:51.366Z,14.38
2022-12-07T09:31:26.395Z,10.05
2022-12-07T09:34:01.461Z,11.85
2022-12-07T09:36:29.624Z,9.57
2022-12-07T09:38:56.807Z,15.23
2022-12-07T09:41:25.352Z,10.10
2022-12-07T09:44:05.971Z,12.63
2022-12-07T09:46:40.026Z,12.32
2022-12-07T09:49:18.851Z,9.77
2022-12-07T09:51:46.238Z,9.15
2022-12-07T09:54:15.618Z,9.30
2022-12-07T09:56:43.586Z,9.05
2022-12-07T09:59:17.750Z,9.68
2022-12-07T10:01:45.297Z,7.50
2022-12-07T10:06:44.607Z,10.35
2022-12-07T10:09:18.812Z,12.93
2022-12-07T10:12:10.240Z,12.07
2022-12-07T10:17:41.558Z,23.67
2022-12-07T10:20:17.413Z,14.75
2022-12-07T10:23:06.652Z,15.68
2022-12-07T10:25:35.777Z,13.80
2022-12-07T10:28:08.736Z,16.02
2022-12-07T10:31:04.301Z,18.90
2022-12-07T10:33:50.922Z,17.40
2022-12-07T10:36:22.614Z,12.60
2022-12-07T10:38:59.258Z,15.13
2022-12-07T10:41:26.119Z,13.27
2022-12-07T10:43:55.735Z,17.92
2022-12-07T10:46:44.722Z,13.10
2022-12-07T10:49:52.907Z,13.07
2022-12-07T10:52:41.608Z,11.20
2022-12-07T10:55:11.410Z,9.82
2022-12-07T10:57:51.040Z,16.33
2022-12-07T11:00:26.067Z,11.50
2022-12-07T11:03:20.302Z,17.25
2022-12-07T11:06:05.966Z,13.13
2022-12-07T11:08:56.754Z,10.82
2022-12-07T11:11:34.651Z,9.68
2022-12-07T11:14:10.243Z,7.68
2022-12-07T11:16:56.120Z,9.23
2022-12-07T11:19:52.039Z,9.00
2022-12-07T11:22:42.178Z,13.60
2022-12-07T11:25:27.256Z,12.90
2022-12-07T11:28:08.007Z,13.80
2022-12-07T11:30:48.458Z,6.72
2022-12-07T11:33:38.464Z,9.15
2022-12-07T11:36:44.437Z,6.78
2022-12-07T11:39:37.351Z,5.40
2022-12-07T11:42:13.522Z,7.07
2022-12-07T11:44:54.363Z,9.32
2022-12-07T11:47:41.984Z,6.05
2022-12-07T11:50:27.499Z,6.35
2022-12-07T11:53:06.489Z,10.73
2022-12-07T11:55:39.231Z,5.25
2022-12-07T11:58:22.405Z,12.18
2022-12-07T12:00:52.718Z,8.65
2022-12-07T12:03:45.830Z,15.95
2022-12-07T12:06:15.808Z,5.65
2022-12-07T12:15:41.347Z,4.88
2022-12-07T12:18:23.650Z,4.70
2022-12-07T12:20:57.244Z,7.57
2022-12-07T12:23:45.461Z,4.75
2022-12-07T12:26:22.226Z,4.70
2022-12-07T12:28:55.709Z,3.75
2022-12-07T12:31:22.705Z,3.03
2022-12-07T12:34:01.588Z,3.28
2022-12-07T12:36:46.347Z,3.28
2022-12-07T12:39:19.622Z,2.45
2022-12-07T12:41:49.094Z,3.10
2022-12-07T12:44:15.833Z,3.30
2022-12-07T12:47:01.436Z,3.22
2022-12-07T12:49:35.972Z,3.55
2022-12-07T12:52:14.975Z,4.00
2022-12-07T12:55:13.025Z,3.13
2022-12-07T12:57:39.931Z,3.00
2022-12-07T13:00:20.824Z,1.77
2022-12-07T13:02:57.020Z,5.15
2022-12-07T13:05:28.477Z,1.80
2022-12-07T13:07:58.784Z,3.30
2022-12-07T13:10:31.314Z,2.20
2022-12-07T13:13:16.267Z,6.65
2022-12-07T13:15:45.717Z,3.25
2022-12-07T13:18:33.270Z,2.05
2022-12-07T13:21:00.141Z,1.30
2022-12-07T13:23:33.036Z,4.28
2022-12-07T13:26:15.545Z,2.70
2022-12-07T13:28:50.024Z,1.63
2022-12-07T13:31:45.903Z,2.60
2022-12-07T13:34:31.477Z,1.92
2022-12-07T13:37:00.585Z,3.72
2022-12-07T13:39:28.030Z,2.67
2022-12-07T13:44:24.214Z,4.20
2022-12-07T13:47:09.739Z,3.05
2022-12-07T13:49:57.111Z,2.83
2022-12-07T13:52:31.846Z,4.32
2022-12-07T13:55:07.592Z,3.28
2022-12-07T13:57:36.577Z,5.28
2022-12-07T14:00:15.925Z,7.82
2022-12-07T14:03:02.792Z,4.45
2022-12-07T14:05:36.205Z,4.00
2022-12-07T14:08:06.444Z,8.75
2022-12-07T14:10:41.390Z,4.90
2022-12-07T14:13:35.027Z,4.60
2022-12-07T14:16:04.086Z,4.68
2022-12-07T14:18:38.815Z,6.50
2022-12-07T14:21:11.702Z,4.32
2022-12-07T14:23:40.266Z,4.45
2022-12-07T14:26:19.992Z,7.90
2022-12-07T14:28:48.326Z,6.03
2022-12-07T14:31:23.780Z,5.97
2022-12-07T14:33:53.093Z,5.03
2022-12-07T14:36:19.969Z,1.88
2022-12-07T14:38:47.128Z,1.83
2022-12-07T14:41:36.847Z,1.88
2022-12-07T14:44:23.213Z,1.13
2022-12-07T14:49:39.034Z,1.95
2022-12-07T14:54:59.001Z,1.75
2022-12-07T14:57:25.743Z,1.80
2022-12-07T14:59:52.449Z,1.73
2022-12-07T15:02:19.216Z,2.65
2022-12-07T15:04:46.050Z,2.78
2022-12-07T15:07:21.773Z,3.55
2022-12-07T15:09:49.536Z,5.00
2022-12-07T15:12:16.471Z,2.45
2022-12-07T15:14:43.253Z,2.17
2022-12-07T15:17:22.026Z,2.40
2022-12-07T15:19:52.977Z,2.47
2022-12-07T15:22:19.791Z,2.72
2022-12-07T15:24:46.573Z,11.13
2022-12-07T15:27:13.325Z,2.75
2022-12-07T15:29:40.128Z,4.30
2022-12-07T15:32:06.925Z,1.67
2022-12-07T15:34:39.855Z,2.33
2022-12-07T15:37:08.525Z,4.13
2022-12-07T15:39:37.080Z,2.88
2022-12-07T15:42:04.128Z,3.45
2022-12-07T15:44:49.727Z,3.28
2022-12-07T15:47:16.766Z,4.90
2022-12-07T15:49:43.903Z,2.53
2022-12-07T15:52:10.774Z,3.65
2022-12-07T15:54:37.727Z,2.72
2022-12-07T15:57:04.494Z,2.17
2022-12-07T15:59:31.286Z,4.40
2022-12-07T16:01:58.592Z,11.07
2022-12-07T16:04:26.053Z,4.63
2022-12-07T16:06:53.330Z,5.78
2022-12-07T16:09:20.104Z,4.10
2022-12-07T16:11:47.046Z,8.45
2022-12-07T16:14:14.171Z,7.38
2022-12-07T16:16:41.385Z,3.72
2022-12-07T16:19:09.224Z,3.97
2022-12-07T16:21:36.549Z,2.70
2022-12-07T16:24:03.794Z,3.50
2022-12-07T16:26:30.528Z,4.30
2022-12-07T16:28:57.523Z,6.35
2022-12-07T16:31:26.651Z,3.00
2022-12-07T16:33:59.111Z,4.15
2022-12-07T16:37:01.895Z,5.15
2022-12-07T16:39:15.249Z,12.90
2022-12-07T16:41:42.225Z,3.15
2022-12-07T16:44:11.587Z,3.00
2022-12-07T16:46:38.352Z,4.57
2022-12-07T16:49:05.758Z,3.95
2022-12-07T16:51:32.827Z,4.03
2022-12-07T16:53:59.678Z,4.45
2022-12-07T16:56:27.567Z,4.07
2022-12-07T16:58:54.429Z,7.43
2022-12-07T17:01:23.559Z,4.65
2022-12-07T17:03:50.843Z,3.75
2022-12-07T17:06:20.172Z,6.45
2022-12-07T17:08:49.844Z,5.55
2022-12-07T17:11:28.746Z,4.25
2022-12-07T17:14:13.915Z,8.57
2022-12-07T17:16:40.884Z,4.47
2022-12-07T17:19:09.536Z,3.63
2022-12-07T17:21:37.064Z,6.60
2022-12-07T17:26:35.723Z,4.55
2022-12-07T17:29:04.758Z,4.90
2022-12-07T17:31:33.138Z,4.15
2022-12-07T17:34:00.252Z,3.92
2022-12-07T17:36:29.412Z,3.63
2022-12-07T17:38:57.357Z,6.68
2022-12-07T17:41:45.869Z,10.27
2022-12-07T17:44:17.988Z,8.90
2022-12-07T17:46:46.323Z,3.90
2022-12-07T17:49:13.185Z,3.70
2022-12-07T17:51:59.026Z,10.77
2022-12-07T17:54:25.926Z,5.07
2022-12-07T17:56:52.707Z,4.13
2022-12-07T17:59:19.485Z,6.32
2022-12-07T18:01:46.374Z,5.68
2022-12-07T18:04:13.439Z,7.03
2022-12-07T18:06:40.546Z,3.05
2022-12-07T18:09:08.231Z,8.30
2022-12-07T18:11:35.910Z,4.15
2022-12-07T18:14:03.763Z,11.70
2022-12-07T18:16:32.895Z,13.52
2022-12-07T18:19:04.760Z,4.18
2022-12-07T18:21:32.663Z,5.78
2022-12-07T18:24:02.293Z,5.50
2022-12-07T18:26:31.395Z,5.25
2022-12-07T18:29:01.562Z,4.95
2022-12-07T18:31:29.392Z,4.85
2022-12-07T18:33:56.868Z,5.25
2022-12-07T18:36:24.167Z,9.93
2022-12-07T18:38:51.720Z,6.40
2022-12-07T18:43:45.945Z,9.10
2022-12-07T18:46:15.015Z,5.90
2022-12-07T18:48:42.096Z,6.10
2022-12-07T18:51:10.927Z,6.95
2022-12-07T18:53:37.786Z,8.60
2022-12-07T18:56:14.526Z,5.63
2022-12-07T18:59:00.592Z,7.82
2022-12-07T19:01:27.613Z,9.05
2022-12-07T19:03:54.464Z,7.80
2022-12-07T19:06:21.214Z,5.63
2022-12-07T19:08:48.144Z,10.23
2022-12-07T19:11:38.170Z,16.05
2022-12-07T19:14:04.962Z,7.00
2022-12-07T19:16:32.290Z,8.35
2022-12-07T19:18:59.118Z,6.65
2022-12-07T19:21:25.940Z,5.70
2022-12-07T19:23:52.846Z,5.13
2022-12-07T19:26:19.735Z,6.05
2022-12-07T19:28:46.502Z,7.28
2022-12-07T19:31:13.541Z,4.55
2022-12-07T19:33:40.634Z,5.75
2022-12-07T19:36:07.799Z,11.63
2022-12-07T19:38:35.001Z,8.15
2022-12-07T19:41:06.588Z,6.03
2022-12-07T19:43:34.641Z,11.43
2022-12-07T19:46:06.028Z,7.07
2022-12-07T19:48:33.178Z,11.18
2022-12-07T19:51:05.369Z,7.57
2022-12-07T19:53:33.091Z,7.20
2022-12-07T19:55:59.972Z,8.23
2022-12-07T19:58:26.997Z,9.35
2022-12-07T20:00:53.773Z,9.45
2022-12-07T20:03:20.768Z,8.63
2022-12-07T20:05:47.732Z,8.95
2022-12-07T20:08:14.702Z,7.65
2022-12-07T20:10:41.679Z,8.13
2022-12-07T20:13:27.697Z,8.90
2022-12-07T20:16:11.351Z,8.30
2022-12-07T20:18:42.300Z,9.45
2022-12-07T20:21:09.434Z,9.43
2022-12-07T20:23:36.209Z,8.57
2022-12-07T20:26:05.336Z,7.55
2022-12-07T20:28:32.862Z,14.75
2022-12-07T20:33:27.320Z,10.50
2022-12-07T20:38:26.081Z,9.93
2022-12-07T20:40:52.854Z,16.92
2022-12-07T20:43:19.614Z,9.63
2022-12-07T20:45:47.944Z,11.77
2022-12-07T20:48:15.181Z,16.60
2022-12-07T20:50:42.671Z,12.68
2022-12-07T20:55:36.559Z,15.05
2022-12-07T20:58:03.517Z,13.85
2022-12-07T21:00:30.305Z,9.82
2022-12-07T21:02:57.338Z,10.38
2022-12-07T21:05:25.125Z,16.90
2022-12-07T21:07:52.091Z,19.90
2022-12-07T21:10:18.956Z,11.68
2022-12-07T21:12:45.747Z,20.98
2022-12-07T21:15:12.540Z,13.93
2022-12-07T21:17:39.327Z,11.05
2022-12-07T21:20:08.327Z,14.88
2022-12-07T21:22:35.064Z,14.40
2022-12-07T21:25:02.139Z,10.90
2022-12-07T21:27:29.502Z,13.77
2022-12-07T21:29:56.271Z,15.70
2022-12-07T21:32:23.069Z,17.38
2022-12-07T21:34:49.907Z,13.55
2022-12-07T21:37:16.927Z,16.25
2022-12-07T21:39:43.646Z,16.77
2022-12-07T21:42:10.388Z,19.10
2022-12-07T21:44:37.379Z,23.48
2022-12-07T21:47:04.483Z,20.75
2022-12-07T21:49:31.381Z,17.55
2022-12-07T21:51:58.106Z,17.02
2022-12-07T21:54:26.192Z,25.00
2022-12-07T21:56:53.396Z,22.05
2022-12-07T21:59:22.867Z,19.20
2022-12-07T22:01:50.745Z,22.63
2022-12-07T22:04:23.040Z,19.50
2022-12-07T22:06:50.523Z,22.58
2022-12-07T22:11:46.090Z,22.77
2022-12-07T22:14:31.398Z,21.95
2022-12-07T22:16:58.549Z,19.67
2022-12-07T22:19:26.241Z,20.00
2022-12-07T22:21:53.133Z,22.13
2022-12-07T22:24:19.887Z,26.17
2022-12-07T22:26:46.944Z,18.33
2022-12-07T22:29:13.772Z,20.92
2022-12-07T22:31:41.099Z,21.95
2022-12-07T22:36:40.741Z,17.80
2022-12-07T22:39:08.547Z,19.05
2022-12-07T22:41:35.309Z,15.80
2022-12-07T22:44:02.183Z,15.50
2022-12-07T22:46:29.121Z,19.10
2022-12-07T22:48:55.962Z,16.00
2022-12-07T22:51:27.383Z,14.45
2022-12-07T22:53:55.106Z,18.27
2022-12-07T22:56:22.734Z,18.02
2022-12-07T22:58:49.768Z,16.77
2022-12-07T23:01:18.426Z,15.85
2022-12-07T23:03:45.880Z,18.33
2022-12-07T23:08:41.651Z,16.00
2022-12-07T23:11:10.399Z,18.50
2022-12-07T23:13:37.964Z,15.52
2022-12-07T23:18:40.626Z,13.50
2022-12-07T23:21:08.337Z,13.95
2022-12-07T23:23:35.340Z,12.95
2022-12-07T23:26:08.550Z,11.10
2022-12-07T23:28:36.644Z,12.65
2022-12-07T23:31:14.971Z,11.63
2022-12-07T23:33:42.586Z,11.40
2022-12-07T23:38:40.225Z,10.90
2022-12-07T23:41:12.740Z,10.60
2022-12-07T23:43:40.704Z,10.77
2022-12-07T23:46:12.785Z,11.40
2022-12-07T23:48:39.918Z,11.55
2022-12-07T23:51:08.380Z,11.15
2022-12-07T23:53:39.860Z,11.50
2022-12-07T23:56:10.680Z,11.48
2022-12-07T23:58:37.500Z,11.73
